Time;durP1;ratioP1;P1;durP2;ratioP2;P2;SDS_P1;SDS_P2;PMS_P1;PMS_P2;Temp;Humidity;BMP_temperature;BMP_pressure;BME280_temperature;BME280_humidity;BME280_pressure;Samples;Min_cycle;Max_cycle;Signal;HPM_P1;HPM_P2
2023/04/11 00:01:48;;;;;;;25.77;3.67;;;;;;;7.47;95.38;100134.53;4882626;29;20033;-95
2023/04/11 00:04:15;;;;;;;31.77;4.10;;;;;;;7.31;96.71;100144.72;4882594;29;20032;-94
2023/04/11 00:06:41;;;;;;;19.80;2.78;;;;;;;7.52;95.86;100142.84;4882532;29;20017;-95
2023/04/11 00:09:09;;;;;;;18.65;3.22;;;;;;;7.31;97.05;100149.03;4894065;29;20033;-94
2023/04/11 00:11:34;;;;;;;23.58;3.50;;;;;;;7.17;98.75;100147.97;4897657;29;20040;-94
2023/04/11 00:14:00;;;;;;;25.67;3.88;;;;;;;7.38;97.79;100150.38;4882597;29;20033;-94
2023/04/11 00:16:25;;;;;;;22.92;3.78;;;;;;;7.40;97.52;100148.59;4882542;29;20032;-93
2023/04/11 00:18:51;;;;;;;19.20;3.42;;;;;;;7.46;97.03;100158.53;4882422;29;20025;-93
2023/04/11 00:21:16;;;;;;;26.00;3.85;;;;;;;7.46;96.66;100154.25;4898516;29;20503;-93
2023/04/11 00:23:42;;;;;;;15.93;2.58;;;;;;;7.33;97.27;100142.09;4882136;29;20037;-94
2023/04/11 00:26:07;;;;;;;20.20;3.38;;;;;;;7.32;97.21;100150.72;4882492;29;20029;-93
2023/04/11 00:28:33;;;;;;;28.20;3.55;;;;;;;7.37;97.28;100153.88;4882054;29;20041;-95
2023/04/11 00:30:58;;;;;;;29.13;3.60;;;;;;;7.27;97.21;100143.22;4881674;29;20037;-95
2023/04/11 00:33:24;;;;;;;23.10;4.15;;;;;;;7.28;98.95;100144.88;4881977;29;20024;-95
2023/04/11 00:35:49;;;;;;;17.55;3.28;;;;;;;7.37;99.94;100164.16;4882159;29;20035;-94
2023/04/11 00:38:15;;;;;;;30.17;5.30;;;;;;;7.40;100.00;100140.88;4882366;29;20092;-95
2023/04/11 00:40:41;;;;;;;38.35;4.00;;;;;;;7.41;100.00;100137.41;4881738;29;20051;-94
2023/04/11 00:43:06;;;;;;;28.95;3.83;;;;;;;7.49;100.00;100138.69;4881954;29;20033;-95
2023/04/11 00:45:32;;;;;;;16.80;3.03;;;;;;;7.38;100.00;100142.69;4881777;29;20032;-95
2023/04/11 00:47:57;;;;;;;24.40;3.40;;;;;;;7.47;100.00;100150.78;4881987;29;20119;-95
2023/04/11 00:50:23;;;;;;;14.15;2.95;;;;;;;7.44;100.00;100150.09;4881990;29;20077;-95
2023/04/11 00:52:50;;;;;;;11.48;2.90;;;;;;;7.46;100.00;100172.22;4881587;29;20036;-94
2023/04/11 00:55:16;;;;;;;12.25;2.25;;;;;;;7.50;98.79;100171.16;4881593;29;20088;-94
2023/04/11 00:57:42;;;;;;;16.10;2.67;;;;;;;7.48;95.04;100172.13;4897908;29;20036;-94
2023/04/11 01:00:09;;;;;;;19.20;3.63;;;;;;;7.37;95.58;100175.25;4880201;29;20029;-93
2023/04/11 01:02:36;;;;;;;17.42;1.73;;;;;;;7.13;91.33;100172.09;4881155;29;20035;-94
2023/04/11 01:05:04;;;;;;;12.20;1.90;;;;;;;7.35;86.49;100187.31;4881533;29;20033;-93
2023/04/11 01:07:30;;;;;;;10.77;2.83;;;;;;;7.32;83.24;100181.50;4881513;29;20463;-94
2023/04/11 01:09:57;;;;;;;12.02;1.75;;;;;;;7.13;81.30;100181.53;4880384;29;20067;-93
2023/04/11 01:12:23;;;;;;;11.95;1.35;;;;;;;7.13;79.95;100182.38;4881276;29;20035;-94
2023/04/11 01:14:48;;;;;;;4.22;0.73;;;;;;;6.91;79.40;100187.69;4879434;29;20020;-94
2023/04/11 01:17:14;;;;;;;8.30;1.17;;;;;;;6.82;78.08;100181.22;4883253;29;20391;-94
2023/04/11 01:19:40;;;;;;;6.90;1.20;;;;;;;6.68;78.36;100181.03;4880674;29;20033;-93
2023/04/11 01:22:06;;;;;;;10.43;1.30;;;;;;;6.69;77.73;100182.69;4880931;29;20064;-94
2023/04/11 01:24:32;;;;;;;4.97;1.20;;;;;;;6.75;77.90;100167.00;4881033;29;20032;-94
2023/04/11 01:26:57;;;;;;;8.48;1.00;;;;;;;6.81;79.11;100169.31;4881437;29;20486;-93
2023/04/11 01:29:23;;;;;;;11.00;1.45;;;;;;;6.91;78.86;100168.91;4881229;29;20507;-94
2023/04/11 01:31:50;;;;;;;5.13;1.77;;;;;;;6.77;78.76;100165.22;4880058;29;20491;-94
2023/04/11 01:34:16;;;;;;;9.95;1.73;;;;;;;6.82;79.27;100165.84;4862626;29;20031;-94
2023/04/11 01:36:42;;;;;;;10.75;1.42;;;;;;;6.69;80.43;100167.31;4862743;29;20056;-94
2023/04/11 01:39:09;;;;;;;10.93;2.05;;;;;;;6.58;81.92;100165.25;4862496;29;20021;-95
2023/04/11 01:41:35;;;;;;;12.00;1.73;;;;;;;6.40;82.28;100159.19;4872370;29;20032;-94
2023/04/11 01:44:04;;;;;;;18.38;3.13;;;;;;;6.55;85.45;100154.28;4880910;29;20025;-94
2023/04/11 01:46:29;;;;;;;19.48;3.08;;;;;;;6.47;89.62;100161.50;4882383;29;20025;-93
2023/04/11 01:48:56;;;;;;;17.52;3.38;;;;;;;6.68;92.54;100165.63;4880715;29;20048;-93
2023/04/11 01:51:21;;;;;;;20.50;2.63;;;;;;;6.42;97.32;100161.69;4897904;29;20088;-93
2023/04/11 01:53:47;;;;;;;21.02;3.67;;;;;;;6.50;98.88;100161.34;4881115;29;20329;-93
2023/04/11 01:56:13;;;;;;;22.02;4.00;;;;;;;6.62;100.00;100163.38;4881742;29;20575;-92
2023/04/11 01:58:39;;;;;;;21.70;3.47;;;;;;;6.50;100.00;100156.22;4883707;29;20056;-93
2023/04/11 02:01:05;;;;;;;30.85;4.30;;;;;;;6.52;100.00;100169.81;4883139;29;20020;-92
2023/04/11 02:03:31;;;;;;;33.67;3.75;;;;;;;6.40;100.00;100151.50;4883739;29;20616;-93
2023/04/11 02:05:56;;;;;;;32.50;4.35;;;;;;;6.40;100.00;100166.88;4885101;29;20052;-94
2023/04/11 02:08:21;;;;;;;23.60;3.35;;;;;;;6.62;100.00;100160.78;4882480;29;20119;-93
2023/04/11 02:10:47;;;;;;;20.77;3.58;;;;;;;6.53;100.00;100167.16;4888194;29;20039;-93
2023/04/11 02:13:12;;;;;;;34.92;3.65;;;;;;;6.50;100.00;100171.59;4902442;29;20028;-94
2023/04/11 02:15:38;;;;;;;31.48;4.93;;;;;;;6.49;100.00;100177.66;4894370;29;20111;-94
2023/04/11 02:18:03;;;;;;;16.13;3.40;;;;;;;6.42;100.00;100175.34;4882974;29;20033;-93
2023/04/11 02:20:29;;;;;;;26.08;4.93;;;;;;;6.69;100.00;100189.56;4888321;29;20092;-93
2023/04/11 02:22:54;;;;;;;22.15;3.30;;;;;;;6.57;100.00;100185.81;4887984;29;20123;-94
2023/04/11 02:25:20;;;;;;;24.13;3.45;;;;;;;6.56;100.00;100186.69;4888809;29;21209;-93
2023/04/11 02:27:45;;;;;;;22.15;3.70;;;;;;;6.64;99.53;100185.47;4889578;29;20095;-93
2023/04/11 02:30:11;;;;;;;13.57;2.67;;;;;;;6.60;98.63;100177.97;4892186;29;20036;-92
2023/04/11 02:32:36;;;;;;;21.05;2.60;;;;;;;6.59;97.65;100177.16;4904555;29;20067;-93
2023/04/11 02:35:03;;;;;;;19.63;2.85;;;;;;;6.65;97.69;100186.28;4886777;29;20024;-94
2023/04/11 02:37:29;;;;;;;28.45;3.40;;;;;;;6.76;95.20;100185.81;4885721;29;20025;-93
2023/04/11 02:39:56;;;;;;;25.25;3.70;;;;;;;6.78;94.65;100184.84;4885701;29;20515;-94
2023/04/11 02:42:21;;;;;;;15.85;2.50;;;;;;;7.07;92.25;100205.75;4891086;29;20024;-93
2023/04/11 02:44:47;;;;;;;13.57;2.47;;;;;;;7.22;84.76;100217.88;4894443;29;20180;-94
2023/04/11 02:47:12;;;;;;;20.13;2.38;;;;;;;7.04;83.01;100222.13;4888311;29;20111;-96
2023/04/11 02:49:40;;;;;;;13.10;2.00;;;;;;;7.19;78.75;100232.56;4901367;29;20033;-94
2023/04/11 02:52:05;;;;;;;8.77;1.10;;;;;;;7.20;75.32;100245.34;4908008;29;20025;-94
2023/04/11 02:54:30;;;;;;;3.40;0.52;;;;;;;7.20;72.00;100234.25;4905515;29;20061;-92
2023/04/11 02:56:56;;;;;;;2.97;0.57;;;;;;;6.75;78.21;100246.53;4904649;29;20451;-95
2023/04/11 02:59:21;;;;;;;4.78;1.35;;;;;;;6.60;82.06;100236.97;4882025;29;20025;-93
2023/04/11 03:01:47;;;;;;;6.28;0.80;;;;;;;6.56;83.25;100232.84;4881371;29;20399;-94
2023/04/11 03:04:12;;;;;;;3.53;0.70;;;;;;;6.45;82.53;100229.94;4884454;29;20021;-95
2023/04/11 03:06:38;;;;;;;2.25;0.50;;;;;;;6.36;83.22;100226.88;4884324;29;20044;-95
2023/04/11 03:09:03;;;;;;;1.60;0.40;;;;;;;6.12;84.17;100231.34;4884283;29;20412;-93
2023/04/11 03:11:29;;;;;;;6.32;0.98;;;;;;;5.74;87.92;100222.66;4882660;29;20116;-95
2023/04/11 03:13:54;;;;;;;4.35;0.60;;;;;;;5.89;85.31;100221.19;4882856;29;20032;-95
2023/04/11 03:16:19;;;;;;;6.80;0.43;;;;;;;5.86;87.00;100234.13;4883006;29;20096;-94
2023/04/11 03:18:45;;;;;;;3.80;0.70;;;;;;;5.62;86.55;100225.72;4882564;29;20025;-95
2023/04/11 03:21:11;;;;;;;4.13;0.90;;;;;;;5.65;87.79;100217.91;4884239;29;20067;-94
2023/04/11 03:23:37;;;;;;;5.22;1.25;;;;;;;5.57;91.36;100223.34;4884284;29;20047;-95
2023/04/11 03:26:06;;;;;;;4.82;0.85;;;;;;;5.50;94.07;100256.00;4897948;29;20047;-95
2023/04/11 03:28:31;;;;;;;7.82;0.93;;;;;;;5.48;96.52;100242.44;4902605;29;20040;-94
2023/04/11 03:30:57;;;;;;;7.63;1.15;;;;;;;5.63;97.70;100230.75;4898525;29;20401;-94
2023/04/11 03:33:22;;;;;;;8.18;1.15;;;;;;;5.61;99.17;100236.81;4883651;29;20025;-94
2023/04/11 03:35:47;;;;;;;5.97;1.38;;;;;;;5.40;100.00;100231.69;4882546;29;20115;-94
2023/04/11 03:38:13;;;;;;;4.07;0.95;;;;;;;5.41;100.00;100241.00;4897811;29;20032;-95
2023/04/11 03:40:38;;;;;;;3.67;0.90;;;;;;;5.45;100.00;100245.13;4901349;29;20490;-95
2023/04/11 03:43:04;;;;;;;11.25;1.13;;;;;;;5.27;100.00;100240.75;4883050;29;20040;-94
2023/04/11 03:45:30;;;;;;;8.48;1.00;;;;;;;5.12;100.00;100245.56;4893414;29;20111;-95
2023/04/11 03:47:55;;;;;;;8.18;1.10;;;;;;;4.90;100.00;100231.88;4899118;29;20273;-96
2023/04/11 03:50:20;;;;;;;5.65;1.02;;;;;;;5.09;100.00;100234.59;4899509;29;20464;-95
2023/04/11 03:52:46;;;;;;;6.63;1.38;;;;;;;4.90;100.00;100226.75;4902628;29;20091;-96
2023/04/11 03:55:11;;;;;;;11.70;1.63;;;;;;;4.88;100.00;100238.78;4902470;29;20387;-95
2023/04/11 03:57:37;;;;;;;6.35;1.00;;;;;;;5.03;100.00;100234.81;4902619;29;20028;-95
2023/04/11 04:00:04;;;;;;;9.38;1.30;;;;;;;4.91;100.00;100231.00;4902519;29;20071;-95
2023/04/11 04:02:30;;;;;;;9.50;1.23;;;;;;;4.98;100.00;100224.78;4887046;29;20028;-95
2023/04/11 04:04:57;;;;;;;6.03;1.15;;;;;;;4.90;100.00;100213.97;4882330;29;20353;-95
2023/04/11 04:07:29;;;;;;;9.27;1.05;;;;;;;4.89;100.00;100208.03;4864542;29;20057;-95
2023/04/11 04:09:54;;;;;;;10.95;1.35;;;;;;;4.65;100.00;100214.88;4864301;29;20033;-95
2023/04/11 04:12:20;;;;;;;12.38;2.13;;;;;;;4.59;100.00;100215.13;4864674;29;20507;-95
2023/04/11 04:14:46;;;;;;;6.07;0.90;;;;;;;4.41;100.00;100215.78;4864610;29;20056;-95
2023/04/11 04:17:13;;;;;;;5.55;1.08;;;;;;;4.24;100.00;100222.34;4864722;29;20077;-96
2023/04/11 04:19:39;;;;;;;7.57;1.50;;;;;;;4.13;100.00;100221.84;4864744;29;20114;-96
2023/04/11 04:22:10;;;;;;;10.65;1.42;;;;;;;4.06;100.00;100215.28;4866223;29;20475;-96
2023/04/11 04:24:40;;;;;;;10.02;1.85;;;;;;;4.08;100.00;100211.78;4883142;29;20024;-96
2023/04/11 04:27:10;;;;;;;11.57;1.70;;;;;;;4.06;100.00;100210.19;4883125;29;20036;-95
2023/04/11 04:29:44;;;;;;;8.82;1.33;;;;;;;4.00;100.00;100205.25;4882772;29;20472;-95
2023/04/11 04:32:19;;;;;;;4.65;1.10;;;;;;;3.88;100.00;100200.56;4882831;29;20039;-96
2023/04/11 04:34:48;;;;;;;7.80;1.23;;;;;;;3.75;100.00;100203.53;4882844;29;20384;-95
2023/04/11 04:37:26;;;;;;;7.18;1.23;;;;;;;3.60;100.00;100192.13;4882595;29;20033;-96
2023/04/11 04:40:00;;;;;;;6.50;1.38;;;;;;;3.55;100.00;100193.16;4882658;29;20128;-95
2023/04/11 04:42:28;;;;;;;6.10;1.27;;;;;;;3.52;100.00;100193.28;4882955;29;20063;-95
2023/04/11 04:44:55;;;;;;;6.03;0.93;;;;;;;3.43;100.00;100194.38;4882697;29;20025;-95
2023/04/11 04:47:22;;;;;;;6.75;1.02;;;;;;;3.37;100.00;100192.88;4882243;29;20127;-94
2023/04/11 04:49:47;;;;;;;8.45;1.40;;;;;;;3.33;100.00;100188.75;4882390;29;20032;-95
2023/04/11 04:52:14;;;;;;;6.00;1.13;;;;;;;3.63;100.00;100198.84;4882457;29;20108;-95
2023/04/11 04:54:39;;;;;;;6.57;1.40;;;;;;;3.41;100.00;100202.09;4882198;29;20107;-96
2023/04/11 04:57:06;;;;;;;7.22;1.15;;;;;;;3.31;100.00;100205.81;4882277;29;20052;-96
2023/04/11 04:59:32;;;;;;;7.13;2.03;;;;;;;3.27;100.00;100214.44;4881902;29;20032;-94
2023/04/11 05:01:57;;;;;;;7.78;1.02;;;;;;;3.32;100.00;100207.50;4882217;29;20128;-94
2023/04/11 05:04:23;;;;;;;6.35;1.52;;;;;;;3.37;100.00;100203.06;4882193;29;20555;-95
2023/04/11 05:06:48;;;;;;;6.10;0.88;;;;;;;3.36;100.00;100209.03;4882472;29;20032;-96
2023/04/11 05:09:15;;;;;;;7.18;1.30;;;;;;;3.41;100.00;100203.78;4879961;29;20047;-96
2023/04/11 05:11:40;;;;;;;8.40;1.27;;;;;;;3.32;100.00;100197.28;4881975;29;20487;-96
2023/04/11 05:14:06;;;;;;;9.27;1.63;;;;;;;3.47;100.00;100205.34;4886261;29;20119;-95
2023/04/11 05:16:31;;;;;;;4.28;1.42;;;;;;;3.41;100.00;100197.00;4882931;29;20037;-95
2023/04/11 05:18:56;;;;;;;13.02;3.38;;;;;;;3.31;100.00;100192.22;4883205;29;20112;-96
2023/04/11 05:21:22;;;;;;;8.10;1.23;;;;;;;3.35;100.00;100202.28;4881552;29;20040;-96
2023/04/11 05:23:47;;;;;;;13.88;1.80;;;;;;;3.34;100.00;100209.97;4882976;29;20025;-96
2023/04/11 05:26:13;;;;;;;10.88;2.03;;;;;;;3.47;100.00;100218.94;4882031;29;20132;-96
2023/04/11 05:28:38;;;;;;;10.82;1.52;;;;;;;3.49;100.00;100229.91;4884904;29;20040;-96
2023/04/11 05:31:05;;;;;;;6.35;1.60;;;;;;;3.53;100.00;100225.53;4893103;29;20444;-96
2023/04/11 05:33:30;;;;;;;11.40;1.50;;;;;;;3.60;100.00;100219.34;4882740;29;20522;-96
2023/04/11 05:35:56;;;;;;;9.05;2.17;;;;;;;3.62;100.00;100223.53;4882725;29;20036;-95
2023/04/11 05:38:21;;;;;;;11.00;1.55;;;;;;;3.56;100.00;100217.78;4881666;29;20032;-95
2023/04/11 05:40:46;;;;;;;12.88;2.63;;;;;;;3.60;100.00;100234.66;4882115;29;20084;-96
2023/04/11 05:43:13;;;;;;;11.70;1.77;;;;;;;3.66;100.00;100239.59;4882479;29;20024;-95
2023/04/11 05:45:46;;;;;;;14.63;3.38;;;;;;;3.69;100.00;100236.94;4882398;29;20301;-95
2023/04/11 05:48:13;;;;;;;6.00;1.27;;;;;;;3.84;100.00;100241.53;4870833;29;20076;-96
2023/04/11 05:50:39;;;;;;;7.32;1.42;;;;;;;4.04;100.00;100245.97;4863551;29;20033;-95
2023/04/11 05:53:05;;;;;;;10.52;1.67;;;;;;;4.32;100.00;100241.63;4863058;29;20021;-96
2023/04/11 05:55:30;;;;;;;13.57;1.70;;;;;;;4.58;100.00;100228.78;4863595;29;20097;-95
2023/04/11 05:57:55;;;;;;;15.18;2.28;;;;;;;4.89;100.00;100243.84;4879137;29;20025;-94
2023/04/11 06:00:23;;;;;;;6.88;1.10;;;;;;;5.01;100.00;100222.09;4887411;29;20104;-95
2023/04/11 06:02:49;;;;;;;13.23;2.03;;;;;;;5.01;100.00;100211.84;4882353;29;20493;-96
2023/04/11 06:05:16;;;;;;;8.02;1.10;;;;;;;5.04;100.00;100210.91;4872499;29;20100;-96
2023/04/11 06:07:42;;;;;;;7.72;0.98;;;;;;;5.05;100.00;100207.47;4887272;29;20059;-95
2023/04/11 06:10:09;;;;;;;6.28;0.90;;;;;;;4.99;100.00;100189.78;4900776;29;20032;-96
2023/04/11 06:12:35;;;;;;;2.58;0.65;;;;;;;4.94;100.00;100207.88;4881908;29;20039;-95
2023/04/11 06:15:01;;;;;;;4.15;1.42;;;;;;;4.98;100.00;100206.88;4880408;29;20915;-96
2023/04/11 06:17:26;;;;;;;7.13;1.00;;;;;;;5.02;100.00;100198.16;4879424;29;20028;-94
2023/04/11 06:19:52;;;;;;;9.27;0.73;;;;;;;5.16;100.00;100220.66;4882728;29;20032;-96
2023/04/11 06:22:17;;;;;;;4.50;0.70;;;;;;;5.21;100.00;100221.31;4881743;29;20467;-96
2023/04/11 06:24:44;;;;;;;9.10;0.88;;;;;;;5.30;100.00;100233.75;4894635;29;20039;-96
2023/04/11 06:27:10;;;;;;;6.97;0.80;;;;;;;5.53;100.00;100234.56;4891703;29;20111;-94
2023/04/11 06:29:40;;;;;;;9.63;1.77;;;;;;;5.68;100.00;100233.13;4900552;29;20027;-95
2023/04/11 06:32:06;;;;;;;8.13;1.02;;;;;;;5.86;100.00;100240.06;4884180;29;20032;-95
2023/04/11 06:34:32;;;;;;;8.70;1.58;;;;;;;5.98;100.00;100239.59;4881667;29;20056;-96
2023/04/11 06:36:57;;;;;;;11.07;1.75;;;;;;;6.07;100.00;100227.28;4881787;29;20108;-95
2023/04/11 06:39:23;;;;;;;10.20;1.70;;;;;;;6.18;100.00;100230.25;4881654;29;20040;-95
2023/04/11 06:41:50;;;;;;;7.80;1.13;;;;;;;6.25;100.00;100223.97;4880933;29;20483;-96
2023/04/11 06:44:15;;;;;;;8.82;1.63;;;;;;;6.29;100.00;100217.81;4895973;29;20479;-96
2023/04/11 06:46:41;;;;;;;10.45;0.95;;;;;;;6.46;100.00;100217.03;4897943;29;20080;-95
2023/04/11 06:49:07;;;;;;;12.20;1.80;;;;;;;6.62;100.00;100212.09;4881546;29;20127;-96
2023/04/11 06:51:34;;;;;;;10.35;1.38;;;;;;;6.77;100.00;100216.53;4881604;29;20029;-96
2023/04/11 06:53:59;;;;;;;10.02;2.58;;;;;;;6.96;100.00;100201.13;4881550;29;20036;-96
2023/04/11 06:56:25;;;;;;;6.18;1.27;;;;;;;7.22;100.00;100192.22;4877471;29;20036;-96
2023/04/11 06:58:50;;;;;;;7.95;1.55;;;;;;;7.48;100.00;100202.94;4878486;29;20471;-96
2023/04/11 07:01:16;;;;;;;10.95;1.80;;;;;;;7.77;100.00;100193.00;4884819;29;20043;-96
2023/04/11 07:03:42;;;;;;;8.55;1.33;;;;;;;8.04;100.00;100190.78;4875946;29;20069;-96
2023/04/11 07:06:07;;;;;;;12.00;1.55;;;;;;;8.05;100.00;100177.03;4900745;29;20082;-96
2023/04/11 07:08:33;;;;;;;8.60;1.83;;;;;;;8.44;100.00;100194.72;4889595;29;20483;-96
2023/04/11 07:10:59;;;;;;;13.02;1.90;;;;;;;8.82;98.21;100184.13;4890470;29;20024;-96
2023/04/11 07:13:24;;;;;;;7.72;1.63;;;;;;;8.99;95.34;100181.47;4884750;29;20029;-96
2023/04/11 07:15:49;;;;;;;8.85;1.65;;;;;;;9.00;92.61;100185.72;4884828;29;20107;-96
2023/04/11 07:18:15;;;;;;;8.75;2.10;;;;;;;9.18;90.52;100176.13;4885491;29;20036;-95
2023/04/11 07:20:41;;;;;;;11.88;1.48;;;;;;;8.99;91.87;100180.63;4886219;29;20609;-96
2023/04/11 07:23:06;;;;;;;8.65;1.58;;;;;;;9.48;89.17;100177.88;4886934;29;20035;-96
2023/04/11 07:25:32;;;;;;;10.00;1.75;;;;;;;9.75;87.25;100180.63;4885060;29;20380;-96
2023/04/11 07:28:07;;;;;;;12.68;2.30;;;;;;;9.85;87.81;100168.03;4886484;29;20020;-96
2023/04/11 07:30:33;;;;;;;10.40;1.73;;;;;;;9.78;84.05;100190.78;4884500;29;20032;-96
2023/04/11 07:32:58;;;;;;;6.18;1.27;;;;;;;9.96;84.12;100188.03;4885195;29;20538;-95
2023/04/11 07:35:24;;;;;;;9.90;1.50;;;;;;;10.18;82.27;100187.59;4884928;29;20092;-96
2023/04/11 07:37:49;;;;;;;12.30;1.70;;;;;;;9.78;84.67;100189.94;4891170;29;20048;-96
2023/04/11 07:40:15;;;;;;;10.02;2.00;;;;;;;9.91;80.51;100188.28;4884395;29;20064;-96
2023/04/11 07:42:40;;;;;;;10.13;1.75;;;;;;;10.83;79.42;100187.09;4884871;29;20052;-96
2023/04/11 07:45:06;;;;;;;7.65;1.88;;;;;;;11.16;76.65;100180.72;4884315;29;20033;-96
2023/04/11 07:47:32;;;;;;;9.95;2.22;;;;;;;10.92;74.14;100165.84;4884211;29;20020;-95
2023/04/11 07:49:58;;;;;;;5.90;2.33;;;;;;;11.72;72.41;100158.09;4883925;29;20391;-95
2023/04/11 07:52:24;;;;;;;10.63;2.60;;;;;;;11.69;72.89;100163.47;4883545;29;20035;-95
2023/04/11 07:54:50;;;;;;;12.27;2.40;;;;;;;11.47;72.67;100174.41;4884140;29;20432;-94
2023/04/11 07:57:15;;;;;;;9.02;2.15;;;;;;;11.72;73.96;100176.19;4884542;29;20028;-95
2023/04/11 07:59:41;;;;;;;11.75;2.47;;;;;;;12.15;72.25;100188.88;4883307;29;20089;-96
2023/04/11 08:02:07;;;;;;;9.73;1.63;;;;;;;12.82;68.23;100181.56;4882600;29;20025;-96
2023/04/11 08:04:33;;;;;;;15.05;1.50;;;;;;;12.93;67.52;100175.66;4882287;29;20141;-94
2023/04/11 08:06:59;;;;;;;7.72;1.55;;;;;;;14.10;63.06;100180.03;4882368;29;20131;-94
2023/04/11 08:09:26;;;;;;;4.32;1.27;;;;;;;14.96;61.99;100173.34;4883130;29;20040;-94
2023/04/11 08:11:52;;;;;;;9.43;1.77;;;;;;;15.69;58.11;100187.31;4880916;29;20029;-94
2023/04/11 08:14:17;;;;;;;8.07;1.52;;;;;;;16.55;54.99;100189.69;4883260;29;20024;-94
2023/04/11 08:16:43;;;;;;;11.27;1.90;;;;;;;16.50;55.56;100182.25;4882123;29;20027;-96
2023/04/11 08:19:10;;;;;;;7.07;1.50;;;;;;;16.24;56.30;100182.72;4883669;29;20136;-95
2023/04/11 08:21:35;;;;;;;7.93;1.10;;;;;;;15.26;58.02;100179.63;4883278;29;20025;-94
2023/04/11 08:24:01;;;;;;;8.45;1.67;;;;;;;15.10;55.97;100174.84;4885778;29;20025;-95
2023/04/11 08:26:26;;;;;;;10.88;1.42;;;;;;;16.52;53.15;100176.94;4884532;29;20028;-95
2023/04/11 08:28:52;;;;;;;6.15;1.30;;;;;;;16.86;52.50;100165.22;4884094;29;20032;-93
2023/04/11 08:31:17;;;;;;;5.55;1.38;;;;;;;17.68;51.15;100156.13;4889449;29;20036;-94
2023/04/11 08:33:42;;;;;;;9.75;1.15;;;;;;;18.26;49.21;100157.72;4892644;29;20021;-93
2023/04/11 08:36:08;;;;;;;5.47;1.45;;;;;;;19.31;46.32;100153.75;4887950;29;20028;-94
2023/04/11 08:38:38;;;;;;;8.95;1.58;;;;;;;19.87;46.67;100154.31;4891130;29;20032;-95
2023/04/11 08:41:04;;;;;;;6.65;1.50;;;;;;;19.40;45.71;100146.78;4891706;29;20032;-94
2023/04/11 08:43:34;;;;;;;8.77;1.60;;;;;;;19.35;44.67;100149.03;4887349;29;20124;-95
2023/04/11 08:46:03;;;;;;;7.10;1.67;;;;;;;20.16;45.59;100158.41;4889624;29;20482;-94
2023/04/11 08:48:29;;;;;;;10.95;1.63;;;;;;;20.52;44.07;100148.53;4886787;29;20029;-95
2023/04/11 08:50:55;;;;;;;9.82;1.92;;;;;;;20.07;44.73;100160.19;4886756;29;20043;-94
2023/04/11 08:53:23;;;;;;;9.85;1.30;;;;;;;20.40;43.64;100155.88;4884380;29;20072;-95
2023/04/11 08:55:49;;;;;;;5.57;1.25;;;;;;;20.67;43.10;100156.63;4882822;29;20025;-95
2023/04/11 08:58:15;;;;;;;7.72;1.30;;;;;;;20.30;42.76;100152.56;4889163;29;20017;-94
2023/04/11 09:00:41;;;;;;;7.00;2.05;;;;;;;19.05;45.53;100153.72;4888422;29;20076;-94
2023/04/11 09:03:08;;;;;;;7.72;1.40;;;;;;;19.33;45.41;100151.00;4883121;29;20032;-95
2023/04/11 09:05:39;;;;;;;6.65;1.40;;;;;;;19.93;45.67;100151.09;4882425;29;20032;-95
2023/04/11 09:08:06;;;;;;;5.32;1.48;;;;;;;19.53;45.03;100151.63;4882676;29;20021;-94
2023/04/11 09:10:33;;;;;;;8.20;1.52;;;;;;;19.44;46.31;100142.91;4883002;29;20040;-94
2023/04/11 09:12:59;;;;;;;7.88;1.50;;;;;;;19.40;46.47;100136.31;4881895;29;20036;-94
2023/04/11 09:15:30;;;;;;;11.25;1.35;;;;;;;19.42;45.11;100126.53;4887026;29;20099;-95
2023/04/11 09:17:56;;;;;;;15.27;1.80;;;;;;;19.61;46.62;100126.31;4883438;29;20029;-94
2023/04/11 09:20:25;;;;;;;8.38;1.67;;;;;;;19.80;43.39;100114.00;4882703;29;20179;-94
2023/04/11 09:22:52;;;;;;;10.35;2.80;;;;;;;18.66;46.56;100125.19;4882500;29;20071;-94
2023/04/11 09:25:19;;;;;;;12.27;2.25;;;;;;;17.83;48.75;100124.41;4883333;29;20032;-94
2023/04/11 09:27:45;;;;;;;11.93;2.60;;;;;;;18.49;47.08;100110.31;4883343;29;20036;-95
2023/04/11 09:30:25;;;;;;;8.02;2.17;;;;;;;18.15;48.99;100118.75;4882760;29;20055;-94
2023/04/11 09:32:52;;;;;;;11.82;2.15;;;;;;;17.76;47.54;100106.63;4890098;29;20092;-93
2023/04/11 09:35:23;;;;;;;10.25;1.95;;;;;;;17.63;49.39;100097.47;4886279;29;20031;-94
2023/04/11 09:37:49;;;;;;;10.45;2.05;;;;;;;17.74;49.18;100110.38;4887398;29;20031;-95
2023/04/11 09:40:18;;;;;;;7.88;1.85;;;;;;;17.40;49.48;100095.19;4887548;29;20036;-95
2023/04/11 09:42:45;;;;;;;11.00;2.28;;;;;;;17.30;48.34;100090.00;4888767;29;20065;-94
2023/04/11 09:45:22;;;;;;;14.02;2.47;;;;;;;17.85;47.23;100086.72;4890143;29;20025;-94
2023/04/11 09:47:50;;;;;;;10.77;2.30;;;;;;;17.20;49.00;100091.81;4890897;29;20067;-95
2023/04/11 09:50:16;;;;;;;14.27;2.35;;;;;;;16.82;49.69;100080.44;4890258;29;20033;-94
2023/04/11 09:52:43;;;;;;;9.07;2.20;;;;;;;17.34;49.00;100082.72;4885081;29;20040;-95
2023/04/11 09:55:13;;;;;;;11.20;2.17;;;;;;;17.09;48.44;100069.31;4883708;29;20100;-95
2023/04/11 09:57:48;;;;;;;8.35;1.92;;;;;;;16.86;49.20;100068.78;4884348;29;20025;-96
2023/04/11 10:00:17;;;;;;;10.52;2.53;;;;;;;16.03;50.65;100051.78;4889800;29;20037;-95
2023/04/11 10:02:43;;;;;;;13.02;2.92;;;;;;;15.46;53.00;100063.56;4894102;29;20029;-95
2023/04/11 10:05:11;;;;;;;11.30;1.98;;;;;;;15.24;52.50;100047.16;4892672;29;20100;-95
2023/04/11 10:07:55;;;;;;;11.57;2.78;;;;;;;15.56;54.76;100046.25;4895193;29;20088;-95
2023/04/11 10:10:23;;;;;;;8.77;2.15;;;;;;;15.24;54.62;100036.75;4895053;29;20184;-94
2023/04/11 10:12:49;;;;;;;9.70;1.98;;;;;;;15.51;52.14;100037.97;4888559;29;20084;-94
2023/04/11 10:15:16;;;;;;;12.60;2.35;;;;;;;15.18;55.96;100024.25;4888601;29;20474;-94
2023/04/11 10:18:02;;;;;;;11.90;2.00;;;;;;;15.06;54.14;100017.47;4886557;29;20418;-95
2023/04/11 10:20:30;;;;;;;8.98;2.05;;;;;;;14.94;54.22;100014.94;4889618;29;20035;-94
2023/04/11 10:23:00;;;;;;;15.65;2.83;;;;;;;14.64;55.33;100005.28;4891598;29;20029;-93
2023/04/11 10:25:26;;;;;;;8.02;1.75;;;;;;;14.43;54.66;99994.00;4892249;29;20092;-95
2023/04/11 10:27:59;;;;;;;10.15;2.10;;;;;;;14.68;53.92;100009.31;4892993;29;20024;-95
2023/04/11 10:30:40;;;;;;;7.20;2.25;;;;;;;14.37;54.76;100000.53;4892021;29;20076;-94
2023/04/11 10:33:14;;;;;;;11.63;1.98;;;;;;;13.71;54.45;100010.94;4891733;29;20045;-94
2023/04/11 10:35:57;;;;;;;10.07;1.83;;;;;;;13.55;55.77;100003.50;4893228;29;20028;-95
2023/04/11 10:38:47;;;;;;;12.13;2.53;;;;;;;13.90;58.01;99997.34;4894293;29;20028;-94
2023/04/11 10:41:24;;;;;;;10.75;2.00;;;;;;;13.68;58.49;99990.41;4897411;29;20042;-95
2023/04/11 10:43:50;;;;;;;20.33;2.53;;;;;;;13.74;58.13;99987.34;4897247;29;20024;-94
2023/04/11 10:46:17;;;;;;;14.15;1.98;;;;;;;14.16;56.07;99982.28;4897407;29;20053;-95
2023/04/11 10:49:00;;;;;;;14.07;2.70;;;;;;;14.44;55.37;99970.53;4893025;29;20479;-95
2023/04/11 10:51:26;;;;;;;13.40;2.72;;;;;;;13.95;54.86;99953.72;4889785;29;20029;-94
2023/04/11 10:53:53;;;;;;;16.25;1.98;;;;;;;14.28;54.96;99946.75;4873370;29;20056;-95
2023/04/11 10:56:49;;;;;;;11.68;1.88;;;;;;;14.57;55.80;99962.59;4888908;29;20052;-94
2023/04/11 10:59:30;;;;;;;12.02;2.05;;;;;;;14.42;54.49;99966.41;4864698;29;20403;-95
2023/04/11 11:01:56;;;;;;;13.05;1.85;;;;;;;14.52;57.46;99962.94;4892142;29;20029;-95
2023/04/11 11:04:32;;;;;;;8.30;1.98;;;;;;;14.54;56.65;99950.69;4893657;29;20024;-96
2023/04/11 11:07:00;;;;;;;8.65;2.28;;;;;;;14.43;54.39;99945.50;4876502;29;20120;-94
2023/04/11 11:09:27;;;;;;;10.95;1.85;;;;;;;14.13;53.31;99941.84;4873121;29;20037;-94
2023/04/11 11:12:10;;;;;;;7.53;1.90;;;;;;;14.00;52.98;99928.22;4884600;29;20033;-95
2023/04/11 11:14:36;;;;;;;10.25;2.13;;;;;;;14.06;53.63;99937.28;4875460;29;20028;-95
2023/04/11 11:17:03;;;;;;;13.00;2.22;;;;;;;13.83;55.59;99932.16;4890906;29;20047;-94
2023/04/11 11:19:29;;;;;;;8.18;2.15;;;;;;;13.16;54.50;99925.22;4890770;29;20021;-94
2023/04/11 11:21:54;;;;;;;11.27;2.17;;;;;;;13.35;55.48;99923.84;4890579;29;20028;-95
2023/04/11 11:24:25;;;;;;;9.82;2.65;;;;;;;12.54;59.11;99941.13;4891572;29;20024;-94